El Tabacal, Argentina
Current Conditions -  °F | °C
As of 7:28 PM on Wednesday 22 Oct 2014 (Local Time) from SASJ Reporting Station
Thunderstorm Thunderstorm  
Wind Chill: 70°   Ceiling: 4000
Heat Index: 70°   Visibility: 2.5mi
Dew Point: 64°   Wind: 14mph
Humidity: 83%   Direction: 270°W
Pressure: 30"   Gusts: 26mph
Location:  23.26°S, 64.25°W
Report Text: SASJ 222228Z 27012G23KT 4000 +TSRA BKN040 FEW045CB 21/18 Q1016
Loading
Personal Weather Stations






























Interactive Weather Map
Tropical Storm Tracking
New forecast layout! Learn more

10-Day Weather Forecast

Advertisements
Track Severe Weather on mobile